sensor_id;sensor_type;location;lat;lon;timestamp;P1;durP1;ratioP1;P2;durP2;ratioP2
81508;SDS011;70930;52.412;13.554;2024-01-30T00:00:21;9.75;;;5.05;;
81508;SDS011;70930;52.412;13.554;2024-01-30T00:02:46;9.80;;;5.50;;
81508;SDS011;70930;52.412;13.554;2024-01-30T00:05:11;11.82;;;4.68;;
81508;SDS011;70930;52.412;13.554;2024-01-30T00:07:37;9.77;;;5.15;;
81508;SDS011;70930;52.412;13.554;2024-01-30T00:10:02;11.73;;;5.22;;
81508;SDS011;70930;52.412;13.554;2024-01-30T00:12:28;11.77;;;5.90;;
81508;SDS011;70930;52.412;13.554;2024-01-30T00:14:53;9.63;;;5.22;;
81508;SDS011;70930;52.412;13.554;2024-01-30T00:17:19;11.05;;;4.80;;
81508;SDS011;70930;52.412;13.554;2024-01-30T00:19:45;10.82;;;5.20;;
81508;SDS011;70930;52.412;13.554;2024-01-30T00:22:11;10.73;;;4.78;;
81508;SDS011;70930;52.412;13.554;2024-01-30T00:24:36;8.18;;;4.63;;
81508;SDS011;70930;52.412;13.554;2024-01-30T00:27:02;10.52;;;4.95;;
81508;SDS011;70930;52.412;13.554;2024-01-30T00:29:27;9.52;;;4.82;;
81508;SDS011;70930;52.412;13.554;2024-01-30T00:31:56;11.35;;;6.15;;
81508;SDS011;70930;52.412;13.554;2024-01-30T00:34:21;11.85;;;6.20;;
81508;SDS011;70930;52.412;13.554;2024-01-30T00:36:46;11.82;;;6.10;;
81508;SDS011;70930;52.412;13.554;2024-01-30T00:39:12;16.58;;;7.07;;
81508;SDS011;70930;52.412;13.554;2024-01-30T00:41:37;12.18;;;6.00;;
81508;SDS011;70930;52.412;13.554;2024-01-30T00:44:03;11.30;;;5.55;;
81508;SDS011;70930;52.412;13.554;2024-01-30T00:46:28;12.38;;;5.90;;
81508;SDS011;70930;52.412;13.554;2024-01-30T00:48:54;9.30;;;4.75;;
81508;SDS011;70930;52.412;13.554;2024-01-30T00:51:19;12.40;;;5.10;;
81508;SDS011;70930;52.412;13.554;2024-01-30T00:53:44;10.52;;;4.75;;
81508;SDS011;70930;52.412;13.554;2024-01-30T00:56:10;13.38;;;5.68;;
81508;SDS011;70930;52.412;13.554;2024-01-30T00:58:35;10.13;;;4.90;;
81508;SDS011;70930;52.412;13.554;2024-01-30T01:01:01;9.88;;;4.95;;
81508;SDS011;70930;52.412;13.554;2024-01-30T01:03:26;11.73;;;5.60;;
81508;SDS011;70930;52.412;13.554;2024-01-30T01:05:51;11.30;;;6.10;;
81508;SDS011;70930;52.412;13.554;2024-01-30T01:08:17;9.63;;;4.32;;
81508;SDS011;70930;52.412;13.554;2024-01-30T01:10:43;13.23;;;5.05;;
81508;SDS011;70930;52.412;13.554;2024-01-30T01:13:08;12.13;;;4.47;;
81508;SDS011;70930;52.412;13.554;2024-01-30T01:15:33;8.75;;;4.88;;
81508;SDS011;70930;52.412;13.554;2024-01-30T01:17:59;10.15;;;4.32;;
81508;SDS011;70930;52.412;13.554;2024-01-30T01:20:24;10.13;;;5.30;;
81508;SDS011;70930;52.412;13.554;2024-01-30T01:22:49;9.80;;;5.57;;
81508;SDS011;70930;52.412;13.554;2024-01-30T01:25:15;8.07;;;4.75;;
81508;SDS011;70930;52.412;13.554;2024-01-30T01:27:40;7.43;;;4.65;;
81508;SDS011;70930;52.412;13.554;2024-01-30T01:30:08;9.85;;;5.28;;
81508;SDS011;70930;52.412;13.554;2024-01-30T01:32:34;10.27;;;5.22;;
81508;SDS011;70930;52.412;13.554;2024-01-30T01:35:00;9.45;;;5.15;;
81508;SDS011;70930;52.412;13.554;2024-01-30T01:37:25;8.68;;;4.65;;
81508;SDS011;70930;52.412;13.554;2024-01-30T01:39:52;13.65;;;5.25;;
81508;SDS011;70930;52.412;13.554;2024-01-30T01:42:17;8.43;;;4.60;;
81508;SDS011;70930;52.412;13.554;2024-01-30T01:44:42;11.18;;;5.53;;
81508;SDS011;70930;52.412;13.554;2024-01-30T01:47:08;10.73;;;4.93;;
81508;SDS011;70930;52.412;13.554;2024-01-30T01:49:33;10.10;;;5.07;;
81508;SDS011;70930;52.412;13.554;2024-01-30T01:51:59;11.23;;;4.88;;
81508;SDS011;70930;52.412;13.554;2024-01-30T01:54:25;14.05;;;5.35;;
81508;SDS011;70930;52.412;13.554;2024-01-30T01:56:51;11.57;;;5.05;;
81508;SDS011;70930;52.412;13.554;2024-01-30T01:59:18;11.27;;;5.53;;
81508;SDS011;70930;52.412;13.554;2024-01-30T02:01:45;10.55;;;5.40;;
81508;SDS011;70930;52.412;13.554;2024-01-30T02:04:14;12.65;;;5.32;;
81508;SDS011;70930;52.412;13.554;2024-01-30T02:06:39;12.40;;;5.10;;
81508;SDS011;70930;52.412;13.554;2024-01-30T02:09:05;8.85;;;5.10;;
81508;SDS011;70930;52.412;13.554;2024-01-30T02:11:30;12.50;;;5.00;;
81508;SDS011;70930;52.412;13.554;2024-01-30T02:13:56;10.88;;;5.47;;
81508;SDS011;70930;52.412;13.554;2024-01-30T02:16:21;11.23;;;4.85;;
81508;SDS011;70930;52.412;13.554;2024-01-30T02:18:47;9.98;;;4.95;;
81508;SDS011;70930;52.412;13.554;2024-01-30T02:21:16;8.43;;;5.10;;
81508;SDS011;70930;52.412;13.554;2024-01-30T02:23:42;12.15;;;5.53;;
81508;SDS011;70930;52.412;13.554;2024-01-30T02:26:09;10.88;;;5.32;;
81508;SDS011;70930;52.412;13.554;2024-01-30T02:28:34;11.27;;;5.05;;
81508;SDS011;70930;52.412;13.554;2024-01-30T02:31:00;11.35;;;4.75;;
81508;SDS011;70930;52.412;13.554;2024-01-30T02:33:25;12.52;;;5.28;;
81508;SDS011;70930;52.412;13.554;2024-01-30T02:35:50;12.68;;;5.57;;
81508;SDS011;70930;52.412;13.554;2024-01-30T02:38:16;8.95;;;4.45;;
81508;SDS011;70930;52.412;13.554;2024-01-30T02:40:41;13.45;;;5.78;;
81508;SDS011;70930;52.412;13.554;2024-01-30T02:43:07;8.73;;;4.80;;
81508;SDS011;70930;52.412;13.554;2024-01-30T02:45:32;9.57;;;5.03;;
81508;SDS011;70930;52.412;13.554;2024-01-30T02:47:58;8.75;;;5.00;;
81508;SDS011;70930;52.412;13.554;2024-01-30T02:50:23;11.43;;;5.13;;
81508;SDS011;70930;52.412;13.554;2024-01-30T02:52:49;11.27;;;4.85;;
81508;SDS011;70930;52.412;13.554;2024-01-30T02:55:14;10.80;;;5.95;;
81508;SDS011;70930;52.412;13.554;2024-01-30T02:57:42;10.40;;;5.45;;
81508;SDS011;70930;52.412;13.554;2024-01-30T03:00:08;10.48;;;5.72;;
81508;SDS011;70930;52.412;13.554;2024-01-30T03:02:34;12.38;;;5.40;;
81508;SDS011;70930;52.412;13.554;2024-01-30T03:05:00;12.32;;;5.13;;
81508;SDS011;70930;52.412;13.554;2024-01-30T03:07:26;11.85;;;5.65;;
81508;SDS011;70930;52.412;13.554;2024-01-30T03:09:51;9.02;;;4.55;;
81508;SDS011;70930;52.412;13.554;2024-01-30T03:12:17;14.23;;;5.40;;
81508;SDS011;70930;52.412;13.554;2024-01-30T03:14:43;8.77;;;4.97;;
81508;SDS011;70930;52.412;13.554;2024-01-30T03:17:08;7.82;;;4.47;;
81508;SDS011;70930;52.412;13.554;2024-01-30T03:19:33;12.18;;;6.05;;
81508;SDS011;70930;52.412;13.554;2024-01-30T03:21:59;10.65;;;5.45;;
81508;SDS011;70930;52.412;13.554;2024-01-30T03:24:25;9.65;;;5.78;;
81508;SDS011;70930;52.412;13.554;2024-01-30T03:26:50;12.90;;;5.35;;
81508;SDS011;70930;52.412;13.554;2024-01-30T03:29:16;10.18;;;6.07;;
81508;SDS011;70930;52.412;13.554;2024-01-30T03:31:41;11.00;;;5.82;;
81508;SDS011;70930;52.412;13.554;2024-01-30T03:34:06;11.57;;;5.75;;
81508;SDS011;70930;52.412;13.554;2024-01-30T03:36:32;13.30;;;5.85;;
81508;SDS011;70930;52.412;13.554;2024-01-30T03:39:00;8.63;;;5.20;;
81508;SDS011;70930;52.412;13.554;2024-01-30T03:41:26;12.32;;;5.70;;
81508;SDS011;70930;52.412;13.554;2024-01-30T03:43:52;12.30;;;5.38;;
81508;SDS011;70930;52.412;13.554;2024-01-30T03:46:17;13.43;;;5.72;;
81508;SDS011;70930;52.412;13.554;2024-01-30T03:48:42;14.15;;;5.50;;
81508;SDS011;70930;52.412;13.554;2024-01-30T03:51:08;11.32;;;5.25;;
81508;SDS011;70930;52.412;13.554;2024-01-30T03:53:39;12.25;;;6.53;;
81508;SDS011;70930;52.412;13.554;2024-01-30T03:56:05;11.07;;;5.28;;
81508;SDS011;70930;52.412;13.554;2024-01-30T03:58:30;10.02;;;5.63;;
81508;SDS011;70930;52.412;13.554;2024-01-30T04:00:56;9.98;;;5.38;;
81508;SDS011;70930;52.412;13.554;2024-01-30T04:03:21;13.45;;;5.70;;
81508;SDS011;70930;52.412;13.554;2024-01-30T04:05:46;14.38;;;5.78;;
81508;SDS011;70930;52.412;13.554;2024-01-30T04:08:12;11.35;;;5.85;;
81508;SDS011;70930;52.412;13.554;2024-01-30T04:10:37;11.93;;;5.78;;
81508;SDS011;70930;52.412;13.554;2024-01-30T04:13:02;11.73;;;5.30;;
81508;SDS011;70930;52.412;13.554;2024-01-30T04:15:28;12.45;;;5.38;;
81508;SDS011;70930;52.412;13.554;2024-01-30T04:17:56;16.90;;;8.05;;
81508;SDS011;70930;52.412;13.554;2024-01-30T04:20:23;23.00;;;11.57;;
81508;SDS011;70930;52.412;13.554;2024-01-30T04:22:48;18.42;;;10.00;;
81508;SDS011;70930;52.412;13.554;2024-01-30T04:25:13;15.55;;;7.25;;
81508;SDS011;70930;52.412;13.554;2024-01-30T04:27:39;16.70;;;6.72;;
81508;SDS011;70930;52.412;13.554;2024-01-30T04:30:04;12.82;;;6.43;;
81508;SDS011;70930;52.412;13.554;2024-01-30T04:32:31;14.18;;;6.47;;
81508;SDS011;70930;52.412;13.554;2024-01-30T04:34:57;16.40;;;7.10;;
81508;SDS011;70930;52.412;13.554;2024-01-30T04:37:22;14.48;;;6.72;;
81508;SDS011;70930;52.412;13.554;2024-01-30T04:39:48;15.40;;;7.00;;
81508;SDS011;70930;52.412;13.554;2024-01-30T04:42:13;12.18;;;6.65;;
81508;SDS011;70930;52.412;13.554;2024-01-30T04:44:39;12.27;;;6.03;;
81508;SDS011;70930;52.412;13.554;2024-01-30T04:47:04;13.73;;;7.40;;
81508;SDS011;70930;52.412;13.554;2024-01-30T04:49:31;14.98;;;6.90;;
81508;SDS011;70930;52.412;13.554;2024-01-30T04:51:57;11.75;;;5.80;;
81508;SDS011;70930;52.412;13.554;2024-01-30T04:54:22;13.20;;;6.00;;
81508;SDS011;70930;52.412;13.554;2024-01-30T04:56:48;14.25;;;6.43;;
81508;SDS011;70930;52.412;13.554;2024-01-30T04:59:13;14.10;;;7.90;;
81508;SDS011;70930;52.412;13.554;2024-01-30T05:01:39;13.60;;;7.32;;
81508;SDS011;70930;52.412;13.554;2024-01-30T05:04:06;14.95;;;7.05;;
81508;SDS011;70930;52.412;13.554;2024-01-30T05:06:32;13.02;;;6.65;;
81508;SDS011;70930;52.412;13.554;2024-01-30T05:08:58;15.05;;;7.90;;
81508;SDS011;70930;52.412;13.554;2024-01-30T05:11:23;13.30;;;7.28;;
81508;SDS011;70930;52.412;13.554;2024-01-30T05:13:49;16.98;;;7.25;;
81508;SDS011;70930;52.412;13.554;2024-01-30T05:16:14;13.10;;;6.47;;
81508;SDS011;70930;52.412;13.554;2024-01-30T05:18:39;11.75;;;6.22;;
81508;SDS011;70930;52.412;13.554;2024-01-30T05:21:05;12.93;;;6.75;;
81508;SDS011;70930;52.412;13.554;2024-01-30T05:23:30;11.43;;;6.38;;
81508;SDS011;70930;52.412;13.554;2024-01-30T05:25:56;14.13;;;6.78;;
81508;SDS011;70930;52.412;13.554;2024-01-30T05:28:21;12.38;;;6.47;;
81508;SDS011;70930;52.412;13.554;2024-01-30T05:30:46;12.10;;;6.40;;
81508;SDS011;70930;52.412;13.554;2024-01-30T05:33:12;12.68;;;6.95;;
81508;SDS011;70930;52.412;13.554;2024-01-30T05:35:38;11.05;;;5.95;;
81508;SDS011;70930;52.412;13.554;2024-01-30T05:38:04;13.27;;;6.70;;
81508;SDS011;70930;52.412;13.554;2024-01-30T05:40:29;11.68;;;6.43;;
81508;SDS011;70930;52.412;13.554;2024-01-30T05:42:55;14.70;;;6.53;;
81508;SDS011;70930;52.412;13.554;2024-01-30T05:45:21;14.55;;;7.60;;
81508;SDS011;70930;52.412;13.554;2024-01-30T05:47:48;15.63;;;6.95;;
81508;SDS011;70930;52.412;13.554;2024-01-30T05:50:13;15.10;;;6.45;;
81508;SDS011;70930;52.412;13.554;2024-01-30T05:52:39;13.88;;;6.90;;
81508;SDS011;70930;52.412;13.554;2024-01-30T05:55:04;13.77;;;6.63;;
81508;SDS011;70930;52.412;13.554;2024-01-30T05:57:30;12.13;;;6.40;;
81508;SDS011;70930;52.412;13.554;2024-01-30T05:59:56;13.68;;;6.20;;
81508;SDS011;70930;52.412;13.554;2024-01-30T06:02:21;12.02;;;5.82;;
81508;SDS011;70930;52.412;13.554;2024-01-30T06:04:46;11.63;;;6.07;;
81508;SDS011;70930;52.412;13.554;2024-01-30T06:07:12;11.80;;;6.13;;
81508;SDS011;70930;52.412;13.554;2024-01-30T06:09:37;11.60;;;6.25;;
81508;SDS011;70930;52.412;13.554;2024-01-30T06:12:04;14.02;;;6.95;;
81508;SDS011;70930;52.412;13.554;2024-01-30T06:14:30;11.55;;;6.10;;
81508;SDS011;70930;52.412;13.554;2024-01-30T06:16:55;12.75;;;6.47;;
81508;SDS011;70930;52.412;13.554;2024-01-30T06:19:21;13.00;;;7.20;;
81508;SDS011;70930;52.412;13.554;2024-01-30T06:21:46;15.10;;;7.35;;
81508;SDS011;70930;52.412;13.554;2024-01-30T06:24:12;14.88;;;7.75;;
81508;SDS011;70930;52.412;13.554;2024-01-30T06:26:37;17.38;;;8.13;;
81508;SDS011;70930;52.412;13.554;2024-01-30T06:29:02;13.60;;;7.90;;
81508;SDS011;70930;52.412;13.554;2024-01-30T06:31:28;13.32;;;6.28;;
81508;SDS011;70930;52.412;13.554;2024-01-30T06:33:53;14.82;;;6.97;;
81508;SDS011;70930;52.412;13.554;2024-01-30T06:36:19;13.70;;;7.43;;
81508;SDS011;70930;52.412;13.554;2024-01-30T06:38:44;16.42;;;7.78;;
81508;SDS011;70930;52.412;13.554;2024-01-30T06:41:10;15.35;;;7.68;;
81508;SDS011;70930;52.412;13.554;2024-01-30T06:43:35;13.90;;;7.80;;
81508;SDS011;70930;52.412;13.554;2024-01-30T06:46:01;15.63;;;7.88;;
81508;SDS011;70930;52.412;13.554;2024-01-30T06:48:26;29.50;;;9.45;;
81508;SDS011;70930;52.412;13.554;2024-01-30T06:50:54;14.95;;;9.27;;
81508;SDS011;70930;52.412;13.554;2024-01-30T06:53:20;18.38;;;8.38;;
81508;SDS011;70930;52.412;13.554;2024-01-30T06:55:45;13.63;;;7.03;;
81508;SDS011;70930;52.412;13.554;2024-01-30T06:58:11;19.45;;;7.85;;
81508;SDS011;70930;52.412;13.554;2024-01-30T07:00:37;15.70;;;6.45;;
81508;SDS011;70930;52.412;13.554;2024-01-30T07:03:02;16.00;;;7.88;;
81508;SDS011;70930;52.412;13.554;2024-01-30T07:05:28;19.88;;;7.13;;
81508;SDS011;70930;52.412;13.554;2024-01-30T07:07:53;17.40;;;7.15;;
81508;SDS011;70930;52.412;13.554;2024-01-30T07:10:19;17.23;;;8.02;;
81508;SDS011;70930;52.412;13.554;2024-01-30T07:12:44;17.08;;;7.95;;
81508;SDS011;70930;52.412;13.554;2024-01-30T07:15:09;14.30;;;7.22;;
81508;SDS011;70930;52.412;13.554;2024-01-30T07:17:35;13.57;;;6.85;;
81508;SDS011;70930;52.412;13.554;2024-01-30T07:20:01;16.95;;;7.20;;
81508;SDS011;70930;52.412;13.554;2024-01-30T07:22:28;11.48;;;6.45;;
81508;SDS011;70930;52.412;13.554;2024-01-30T07:24:55;13.15;;;6.97;;
81508;SDS011;70930;52.412;13.554;2024-01-30T07:27:20;15.73;;;7.40;;
81508;SDS011;70930;52.412;13.554;2024-01-30T07:29:46;15.20;;;7.68;;
81508;SDS011;70930;52.412;13.554;2024-01-30T07:32:11;17.10;;;7.80;;
81508;SDS011;70930;52.412;13.554;2024-01-30T07:34:37;15.52;;;7.63;;
81508;SDS011;70930;52.412;13.554;2024-01-30T07:37:03;14.90;;;7.07;;
81508;SDS011;70930;52.412;13.554;2024-01-30T07:39:28;16.50;;;6.75;;
81508;SDS011;70930;52.412;13.554;2024-01-30T07:41:53;17.63;;;7.85;;
81508;SDS011;70930;52.412;13.554;2024-01-30T07:44:19;13.43;;;7.65;;
81508;SDS011;70930;52.412;13.554;2024-01-30T07:46:45;11.35;;;6.97;;
81508;SDS011;70930;52.412;13.554;2024-01-30T07:49:10;15.55;;;6.25;;
81508;SDS011;70930;52.412;13.554;2024-01-30T07:51:35;17.05;;;7.95;;
81508;SDS011;70930;52.412;13.554;2024-01-30T07:54:01;14.07;;;7.32;;
81508;SDS011;70930;52.412;13.554;2024-01-30T07:56:26;14.40;;;7.60;;
81508;SDS011;70930;52.412;13.554;2024-01-30T07:58:51;14.00;;;6.95;;
81508;SDS011;70930;52.412;13.554;2024-01-30T08:01:17;13.20;;;7.43;;
81508;SDS011;70930;52.412;13.554;2024-01-30T08:03:43;15.45;;;6.65;;
81508;SDS011;70930;52.412;13.554;2024-01-30T08:06:09;15.52;;;8.18;;
81508;SDS011;70930;52.412;13.554;2024-01-30T08:08:35;13.23;;;6.47;;
81508;SDS011;70930;52.412;13.554;2024-01-30T08:11:00;12.45;;;6.60;;
81508;SDS011;70930;52.412;13.554;2024-01-30T08:13:25;13.23;;;6.68;;
81508;SDS011;70930;52.412;13.554;2024-01-30T08:15:51;17.48;;;6.93;;
81508;SDS011;70930;52.412;13.554;2024-01-30T08:18:16;11.43;;;6.03;;
81508;SDS011;70930;52.412;13.554;2024-01-30T08:20:41;16.67;;;7.40;;
81508;SDS011;70930;52.412;13.554;2024-01-30T08:23:07;11.23;;;6.40;;
81508;SDS011;70930;52.412;13.554;2024-01-30T08:25:33;14.30;;;6.40;;
81508;SDS011;70930;52.412;13.554;2024-01-30T08:27:58;16.50;;;7.70;;
81508;SDS011;70930;52.412;13.554;2024-01-30T08:30:25;13.02;;;7.00;;
81508;SDS011;70930;52.412;13.554;2024-01-30T08:32:50;13.07;;;7.20;;
81508;SDS011;70930;52.412;13.554;2024-01-30T08:35:15;14.65;;;7.13;;
81508;SDS011;70930;52.412;13.554;2024-01-30T08:37:41;13.38;;;6.85;;
81508;SDS011;70930;52.412;13.554;2024-01-30T08:40:07;13.65;;;6.43;;
81508;SDS011;70930;52.412;13.554;2024-01-30T08:42:33;15.18;;;7.43;;
81508;SDS011;70930;52.412;13.554;2024-01-30T08:44:59;16.08;;;7.78;;
81508;SDS011;70930;52.412;13.554;2024-01-30T08:47:24;14.65;;;7.90;;
81508;SDS011;70930;52.412;13.554;2024-01-30T08:49:50;14.20;;;7.45;;
81508;SDS011;70930;52.412;13.554;2024-01-30T08:52:16;14.95;;;7.40;;
81508;SDS011;70930;52.412;13.554;2024-01-30T08:54:41;12.48;;;7.30;;
81508;SDS011;70930;52.412;13.554;2024-01-30T08:57:06;15.43;;;7.65;;
81508;SDS011;70930;52.412;13.554;2024-01-30T08:59:32;16.63;;;7.88;;
81508;SDS011;70930;52.412;13.554;2024-01-30T09:01:58;13.10;;;6.07;;
81508;SDS011;70930;52.412;13.554;2024-01-30T09:04:24;11.27;;;6.57;;
81508;SDS011;70930;52.412;13.554;2024-01-30T09:06:50;14.20;;;6.93;;
81508;SDS011;70930;52.412;13.554;2024-01-30T09:09:15;13.23;;;6.32;;
81508;SDS011;70930;52.412;13.554;2024-01-30T09:11:41;12.32;;;6.05;;
81508;SDS011;70930;52.412;13.554;2024-01-30T09:14:06;11.90;;;6.15;;
81508;SDS011;70930;52.412;13.554;2024-01-30T09:16:32;10.98;;;5.60;;
81508;SDS011;70930;52.412;13.554;2024-01-30T09:18:57;18.23;;;8.18;;
81508;SDS011;70930;52.412;13.554;2024-01-30T09:21:23;9.82;;;5.80;;
81508;SDS011;70930;52.412;13.554;2024-01-30T09:23:48;12.48;;;7.15;;
81508;SDS011;70930;52.412;13.554;2024-01-30T09:26:14;13.88;;;6.15;;
81508;SDS011;70930;52.412;13.554;2024-01-30T09:28:39;13.57;;;6.57;;
81508;SDS011;70930;52.412;13.554;2024-01-30T09:31:09;10.35;;;5.68;;
81508;SDS011;70930;52.412;13.554;2024-01-30T09:33:35;10.88;;;5.15;;
81508;SDS011;70930;52.412;13.554;2024-01-30T09:36:01;10.70;;;5.20;;
81508;SDS011;70930;52.412;13.554;2024-01-30T09:38:26;11.75;;;5.95;;
81508;SDS011;70930;52.412;13.554;2024-01-30T09:40:53;13.90;;;6.28;;
81508;SDS011;70930;52.412;13.554;2024-01-30T09:43:22;12.77;;;5.72;;
81508;SDS011;70930;52.412;13.554;2024-01-30T09:45:49;11.63;;;5.80;;
81508;SDS011;70930;52.412;13.554;2024-01-30T09:48:15;11.93;;;6.20;;
81508;SDS011;70930;52.412;13.554;2024-01-30T09:50:41;13.07;;;6.05;;
81508;SDS011;70930;52.412;13.554;2024-01-30T09:53:07;13.90;;;6.93;;
81508;SDS011;70930;52.412;13.554;2024-01-30T09:55:34;13.20;;;6.40;;
81508;SDS011;70930;52.412;13.554;2024-01-30T09:58:01;12.73;;;5.80;;
81508;SDS011;70930;52.412;13.554;2024-01-30T10:00:26;12.57;;;6.38;;
81508;SDS011;70930;52.412;13.554;2024-01-30T10:02:52;12.23;;;6.28;;
81508;SDS011;70930;52.412;13.554;2024-01-30T10:05:18;14.93;;;6.43;;
81508;SDS011;70930;52.412;13.554;2024-01-30T10:07:54;14.00;;;5.82;;
81508;SDS011;70930;52.412;13.554;2024-01-30T10:10:23;12.95;;;5.68;;
81508;SDS011;70930;52.412;13.554;2024-01-30T10:12:49;8.93;;;5.10;;
81508;SDS011;70930;52.412;13.554;2024-01-30T10:15:15;10.93;;;5.35;;
81508;SDS011;70930;52.412;13.554;2024-01-30T10:17:40;9.45;;;4.57;;
81508;SDS011;70930;52.412;13.554;2024-01-30T10:20:06;8.13;;;4.30;;
81508;SDS011;70930;52.412;13.554;2024-01-30T10:22:32;6.45;;;4.15;;
81508;SDS011;70930;52.412;13.554;2024-01-30T10:24:58;7.22;;;3.65;;
81508;SDS011;70930;52.412;13.554;2024-01-30T10:27:25;9.10;;;4.00;;
81508;SDS011;70930;52.412;13.554;2024-01-30T10:29:52;8.10;;;3.78;;
81508;SDS011;70930;52.412;13.554;2024-01-30T10:32:17;5.65;;;3.72;;
81508;SDS011;70930;52.412;13.554;2024-01-30T10:34:43;7.57;;;3.97;;
81508;SDS011;70930;52.412;13.554;2024-01-30T10:37:09;6.70;;;3.35;;
81508;SDS011;70930;52.412;13.554;2024-01-30T10:39:40;7.03;;;4.10;;
81508;SDS011;70930;52.412;13.554;2024-01-30T10:42:07;6.03;;;3.53;;
81508;SDS011;70930;52.412;13.554;2024-01-30T10:44:37;6.35;;;3.50;;
81508;SDS011;70930;52.412;13.554;2024-01-30T10:47:11;7.38;;;3.90;;
81508;SDS011;70930;52.412;13.554;2024-01-30T10:49:38;4.97;;;2.85;;
81508;SDS011;70930;52.412;13.554;2024-01-30T10:52:05;7.25;;;3.58;;
81508;SDS011;70930;52.412;13.554;2024-01-30T10:54:34;5.85;;;3.28;;
81508;SDS011;70930;52.412;13.554;2024-01-30T10:57:00;7.63;;;3.47;;
81508;SDS011;70930;52.412;13.554;2024-01-30T10:59:29;6.93;;;3.90;;
81508;SDS011;70930;52.412;13.554;2024-01-30T11:01:57;6.70;;;3.63;;
81508;SDS011;70930;52.412;13.554;2024-01-30T11:04:23;7.10;;;3.70;;
81508;SDS011;70930;52.412;13.554;2024-01-30T11:06:50;8.65;;;3.80;;
81508;SDS011;70930;52.412;13.554;2024-01-30T11:09:17;6.43;;;3.97;;
81508;SDS011;70930;52.412;13.554;2024-01-30T11:11:57;4.75;;;3.47;;
81508;SDS011;70930;52.412;13.554;2024-01-30T11:14:27;7.03;;;4.28;;
81508;SDS011;70930;52.412;13.554;2024-01-30T11:16:57;7.50;;;3.40;;
81508;SDS011;70930;52.412;13.554;2024-01-30T11:19:26;6.75;;;3.58;;
81508;SDS011;70930;52.412;13.554;2024-01-30T11:21:55;7.53;;;3.47;;
81508;SDS011;70930;52.412;13.554;2024-01-30T11:24:22;6.70;;;3.42;;
81508;SDS011;70930;52.412;13.554;2024-01-30T11:26:57;7.47;;;3.80;;
81508;SDS011;70930;52.412;13.554;2024-01-30T11:29:24;6.20;;;3.88;;
81508;SDS011;70930;52.412;13.554;2024-01-30T11:31:57;6.40;;;3.70;;
81508;SDS011;70930;52.412;13.554;2024-01-30T11:34:24;7.22;;;4.25;;
81508;SDS011;70930;52.412;13.554;2024-01-30T11:36:53;7.05;;;4.20;;
81508;SDS011;70930;52.412;13.554;2024-01-30T11:39:24;6.80;;;3.80;;
81508;SDS011;70930;52.412;13.554;2024-01-30T11:41:54;6.45;;;3.80;;
81508;SDS011;70930;52.412;13.554;2024-01-30T11:44:19;6.75;;;3.75;;
81508;SDS011;70930;52.412;13.554;2024-01-30T11:46:46;6.30;;;3.70;;
81508;SDS011;70930;52.412;13.554;2024-01-30T11:49:13;8.10;;;4.50;;
81508;SDS011;70930;52.412;13.554;2024-01-30T11:51:38;6.93;;;3.85;;
81508;SDS011;70930;52.412;13.554;2024-01-30T11:54:04;8.02;;;4.30;;
81508;SDS011;70930;52.412;13.554;2024-01-30T11:56:29;7.03;;;3.92;;
81508;SDS011;70930;52.412;13.554;2024-01-30T11:58:55;8.15;;;4.30;;
81508;SDS011;70930;52.412;13.554;2024-01-30T12:01:20;7.03;;;3.97;;
81508;SDS011;70930;52.412;13.554;2024-01-30T12:03:49;8.98;;;4.55;;
81508;SDS011;70930;52.412;13.554;2024-01-30T12:06:15;6.93;;;4.20;;
81508;SDS011;70930;52.412;13.554;2024-01-30T12:08:41;8.25;;;5.00;;
81508;SDS011;70930;52.412;13.554;2024-01-30T12:11:07;7.28;;;4.47;;
81508;SDS011;70930;52.412;13.554;2024-01-30T12:13:32;8.63;;;4.38;;
81508;SDS011;70930;52.412;13.554;2024-01-30T12:15:58;8.80;;;4.25;;
81508;SDS011;70930;52.412;13.554;2024-01-30T12:18:24;7.97;;;4.50;;
81508;SDS011;70930;52.412;13.554;2024-01-30T12:21:01;8.55;;;4.35;;
81508;SDS011;70930;52.412;13.554;2024-01-30T12:23:27;10.23;;;4.10;;
81508;SDS011;70930;52.412;13.554;2024-01-30T12:25:53;10.57;;;4.60;;
81508;SDS011;70930;52.412;13.554;2024-01-30T12:28:19;9.07;;;4.35;;
81508;SDS011;70930;52.412;13.554;2024-01-30T12:30:45;8.77;;;4.80;;
81508;SDS011;70930;52.412;13.554;2024-01-30T12:33:15;10.02;;;4.80;;
81508;SDS011;70930;52.412;13.554;2024-01-30T12:35:45;9.57;;;4.50;;
81508;SDS011;70930;52.412;13.554;2024-01-30T12:38:10;8.82;;;4.57;;
81508;SDS011;70930;52.412;13.554;2024-01-30T12:40:36;10.23;;;5.22;;
81508;SDS011;70930;52.412;13.554;2024-01-30T12:43:01;8.20;;;4.18;;
81508;SDS011;70930;52.412;13.554;2024-01-30T12:45:28;7.15;;;4.13;;
81508;SDS011;70930;52.412;13.554;2024-01-30T12:47:53;8.23;;;4.57;;
81508;SDS011;70930;52.412;13.554;2024-01-30T12:50:19;8.98;;;4.70;;
81508;SDS011;70930;52.412;13.554;2024-01-30T12:52:44;8.45;;;3.85;;
81508;SDS011;70930;52.412;13.554;2024-01-30T12:55:10;7.05;;;4.20;;
81508;SDS011;70930;52.412;13.554;2024-01-30T12:57:35;7.35;;;4.43;;
81508;SDS011;70930;52.412;13.554;2024-01-30T13:00:01;8.00;;;4.60;;
81508;SDS011;70930;52.412;13.554;2024-01-30T13:02:26;7.60;;;4.07;;
81508;SDS011;70930;52.412;13.554;2024-01-30T13:04:59;7.93;;;4.80;;
81508;SDS011;70930;52.412;13.554;2024-01-30T13:07:25;9.30;;;5.28;;
81508;SDS011;70930;52.412;13.554;2024-01-30T13:09:50;7.90;;;4.18;;
81508;SDS011;70930;52.412;13.554;2024-01-30T13:12:16;8.57;;;4.20;;
81508;SDS011;70930;52.412;13.554;2024-01-30T13:14:41;7.03;;;4.00;;
81508;SDS011;70930;52.412;13.554;2024-01-30T13:17:07;9.55;;;5.38;;
81508;SDS011;70930;52.412;13.554;2024-01-30T13:19:33;9.25;;;4.88;;
81508;SDS011;70930;52.412;13.554;2024-01-30T13:21:58;9.88;;;4.88;;
81508;SDS011;70930;52.412;13.554;2024-01-30T13:24:24;8.82;;;4.63;;
81508;SDS011;70930;52.412;13.554;2024-01-30T13:26:49;6.07;;;4.50;;
81508;SDS011;70930;52.412;13.554;2024-01-30T13:29:15;8.50;;;4.57;;
81508;SDS011;70930;52.412;13.554;2024-01-30T13:31:40;7.00;;;4.03;;
81508;SDS011;70930;52.412;13.554;2024-01-30T13:34:06;7.32;;;4.35;;
81508;SDS011;70930;52.412;13.554;2024-01-30T13:36:34;8.57;;;4.53;;
81508;SDS011;70930;52.412;13.554;2024-01-30T13:38:59;10.40;;;4.50;;
81508;SDS011;70930;52.412;13.554;2024-01-30T13:41:24;7.88;;;4.18;;
81508;SDS011;70930;52.412;13.554;2024-01-30T13:43:50;6.57;;;4.05;;
81508;SDS011;70930;52.412;13.554;2024-01-30T13:46:15;13.05;;;4.97;;
81508;SDS011;70930;52.412;13.554;2024-01-30T13:48:41;12.63;;;4.38;;
81508;SDS011;70930;52.412;13.554;2024-01-30T13:51:06;8.63;;;4.38;;
81508;SDS011;70930;52.412;13.554;2024-01-30T13:53:32;7.30;;;4.38;;
81508;SDS011;70930;52.412;13.554;2024-01-30T13:55:57;7.57;;;4.22;;
81508;SDS011;70930;52.412;13.554;2024-01-30T13:58:22;8.50;;;4.38;;
81508;SDS011;70930;52.412;13.554;2024-01-30T14:00:47;8.40;;;4.32;;
81508;SDS011;70930;52.412;13.554;2024-01-30T14:03:14;7.55;;;4.22;;
81508;SDS011;70930;52.412;13.554;2024-01-30T14:05:39;8.75;;;4.82;;
81508;SDS011;70930;52.412;13.554;2024-01-30T14:08:05;8.45;;;4.57;;
81508;SDS011;70930;52.412;13.554;2024-01-30T14:10:32;9.40;;;5.32;;
81508;SDS011;70930;52.412;13.554;2024-01-30T14:12:57;11.20;;;5.40;;
81508;SDS011;70930;52.412;13.554;2024-01-30T14:15:22;10.30;;;5.15;;
81508;SDS011;70930;52.412;13.554;2024-01-30T14:17:48;7.47;;;4.45;;